createdAt,value
2023-06-10T00:00:39.974Z,22.19
2023-06-10T00:03:06.513Z,22.14
2023-06-10T00:05:35.300Z,22.07
2023-06-10T00:08:07.414Z,22.01
2023-06-10T00:10:38.818Z,21.92
2023-06-10T00:13:08.334Z,21.85
2023-06-10T00:15:36.020Z,21.79
2023-06-10T00:18:04.191Z,21.74
2023-06-10T00:20:31.293Z,21.70
2023-06-10T00:23:01.885Z,21.68
2023-06-10T00:25:28.453Z,21.62
2023-06-10T00:27:55.766Z,21.55
2023-06-10T00:30:22.287Z,21.48
2023-06-10T00:32:50.364Z,21.39
2023-06-10T00:35:17.075Z,21.33
2023-06-10T00:37:43.665Z,21.29
2023-06-10T00:40:11.354Z,21.23
2023-06-10T00:42:38.134Z,21.16
2023-06-10T00:45:05.856Z,21.10
2023-06-10T00:47:32.621Z,21.06
2023-06-10T00:49:59.259Z,21.04
2023-06-10T00:52:27.807Z,21.04
2023-06-10T00:54:54.484Z,21.03
2023-06-10T00:57:21.590Z,21.01
2023-06-10T00:59:49.219Z,20.96
2023-06-10T01:02:15.789Z,20.91
2023-06-10T01:04:42.393Z,20.89
2023-06-10T01:07:31.726Z,20.86
2023-06-10T01:10:21.918Z,20.84
2023-06-10T01:13:03.182Z,20.75
2023-06-10T01:15:31.545Z,20.68
2023-06-10T01:18:00.386Z,20.60
2023-06-10T01:20:30.258Z,20.55
2023-06-10T01:22:58.441Z,20.51
2023-06-10T01:25:28.904Z,20.47
2023-06-10T01:28:02.187Z,20.44
2023-06-10T01:30:31.149Z,20.40
2023-06-10T01:32:57.951Z,20.37
2023-06-10T01:35:25.778Z,20.37
2023-06-10T01:37:53.720Z,20.39
2023-06-10T01:40:21.652Z,20.44
2023-06-10T01:42:48.322Z,20.44
2023-06-10T01:45:14.780Z,20.46
2023-06-10T01:47:41.368Z,20.48
2023-06-10T01:50:08.228Z,20.51
2023-06-10T01:52:36.073Z,20.51
2023-06-10T01:55:03.167Z,20.51
2023-06-10T01:57:30.658Z,20.51
2023-06-10T01:59:57.142Z,20.51
2023-06-10T02:02:25.392Z,20.49
2023-06-10T02:04:52.134Z,20.47
2023-06-10T02:07:21.322Z,20.45
2023-06-10T02:09:49.119Z,20.41
2023-06-10T02:12:17.461Z,20.37
2023-06-10T02:14:45.222Z,20.36
2023-06-10T02:17:13.147Z,20.35
2023-06-10T02:19:43.196Z,20.33
2023-06-10T02:22:10.582Z,20.32
2023-06-10T02:24:38.072Z,20.31
2023-06-10T02:27:07.092Z,20.33
2023-06-10T02:29:35.761Z,20.35
2023-06-10T02:32:03.113Z,20.39
2023-06-10T02:34:30.477Z,20.41
2023-06-10T02:36:57.610Z,20.43
2023-06-10T02:39:24.778Z,20.46
2023-06-10T02:41:52.548Z,20.51
2023-06-10T02:44:19.329Z,20.55
2023-06-10T02:46:46.362Z,20.60
2023-06-10T02:49:13.317Z,20.65
2023-06-10T02:51:39.781Z,20.70
2023-06-10T02:54:07.137Z,20.73
2023-06-10T02:56:35.450Z,20.78
2023-06-10T02:59:03.062Z,20.83
2023-06-10T03:01:32.142Z,20.87
2023-06-10T03:04:05.919Z,20.92
2023-06-10T03:06:34.269Z,20.97
2023-06-10T03:09:10.338Z,21.01
2023-06-10T03:11:38.156Z,21.06
2023-06-10T03:14:05.352Z,21.12
2023-06-10T03:16:32.940Z,21.20
2023-06-10T03:19:00.107Z,21.27
2023-06-10T03:21:27.620Z,21.32
2023-06-10T03:23:55.707Z,21.38
2023-06-10T03:26:22.256Z,21.45
2023-06-10T03:28:49.293Z,21.53
2023-06-10T03:31:17.302Z,21.59
2023-06-10T03:33:44.172Z,21.65
2023-06-10T03:36:10.948Z,21.72
2023-06-10T03:38:37.933Z,21.79
2023-06-10T03:41:04.803Z,21.86
2023-06-10T03:43:32.347Z,21.92
2023-06-10T03:45:59.522Z,21.98
2023-06-10T03:48:26.210Z,22.04
2023-06-10T03:50:53.289Z,22.11
2023-06-10T03:53:21.893Z,22.18
2023-06-10T03:55:49.261Z,22.22
2023-06-10T03:58:20.122Z,22.28
2023-06-10T04:00:47.457Z,22.35
2023-06-10T04:03:14.945Z,22.44
2023-06-10T04:05:44.751Z,22.54
2023-06-10T04:08:11.602Z,22.63
2023-06-10T04:10:39.837Z,22.71
2023-06-10T04:13:06.518Z,22.79
2023-06-10T04:15:39.215Z,22.88
2023-06-10T04:18:09.204Z,22.97
2023-06-10T04:20:38.280Z,23.05
2023-06-10T04:23:04.951Z,23.16
2023-06-10T04:25:32.043Z,23.26
2023-06-10T04:27:58.805Z,23.36
2023-06-10T04:30:26.280Z,23.50
2023-06-10T04:32:53.955Z,23.65
2023-06-10T04:35:20.546Z,23.78
2023-06-10T04:37:47.637Z,23.90
2023-06-10T04:40:15.278Z,24.01
2023-06-10T04:42:42.815Z,24.11
2023-06-10T04:45:10.185Z,24.19
2023-06-10T04:47:39.692Z,24.27
2023-06-10T04:50:07.068Z,24.36
2023-06-10T04:52:34.215Z,24.42
2023-06-10T04:55:01.018Z,24.48
2023-06-10T04:57:27.788Z,24.55
2023-06-10T04:59:54.332Z,24.64
2023-06-10T05:02:21.031Z,24.74
2023-06-10T05:04:47.833Z,24.84
2023-06-10T05:07:14.363Z,24.94
2023-06-10T05:09:41.333Z,25.03
2023-06-10T05:12:09.469Z,25.11
2023-06-10T05:14:38.091Z,25.20
2023-06-10T05:17:06.625Z,25.28
2023-06-10T05:19:33.696Z,25.38
2023-06-10T05:22:00.206Z,25.49
2023-06-10T05:24:28.733Z,25.57
2023-06-10T05:26:55.455Z,25.68
2023-06-10T05:29:22.378Z,25.79
2023-06-10T05:31:49.321Z,25.89
2023-06-10T05:34:16.013Z,26.00
2023-06-10T05:36:42.979Z,26.10
2023-06-10T05:39:10.062Z,26.19
2023-06-10T05:41:37.337Z,26.29
2023-06-10T05:44:04.901Z,26.39
2023-06-10T05:46:31.666Z,26.47
2023-06-10T05:48:58.385Z,26.54
2023-06-10T05:51:25.995Z,26.58
2023-06-10T05:53:52.684Z,26.62
2023-06-10T05:56:19.295Z,26.66
2023-06-10T05:58:45.827Z,26.70
2023-06-10T06:01:12.527Z,26.74
2023-06-10T06:03:40.261Z,26.78
2023-06-10T06:06:07.049Z,26.81
2023-06-10T06:08:33.945Z,26.79
2023-06-10T06:11:00.765Z,26.78
2023-06-10T06:13:28.160Z,26.78
2023-06-10T06:15:54.999Z,26.84
2023-06-10T06:18:21.827Z,26.91
2023-06-10T06:20:48.330Z,27.02
2023-06-10T06:23:15.330Z,27.16
2023-06-10T06:25:42.344Z,27.32
2023-06-10T06:28:10.301Z,27.45
2023-06-10T06:30:36.847Z,27.60
2023-06-10T06:33:03.667Z,27.79
2023-06-10T06:35:34.547Z,27.97
2023-06-10T06:38:01.321Z,28.17
2023-06-10T06:40:28.654Z,28.34
2023-06-10T06:42:55.296Z,28.49
2023-06-10T06:45:51.182Z,28.61
2023-06-10T06:48:17.804Z,28.69
2023-06-10T06:50:44.677Z,28.76
2023-06-10T06:53:11.319Z,28.83
2023-06-10T06:55:38.134Z,28.88
2023-06-10T06:58:05.068Z,28.94
2023-06-10T07:00:32.395Z,29.03
2023-06-10T07:02:59.093Z,29.10
2023-06-10T07:05:27.686Z,29.13
2023-06-10T07:07:55.699Z,29.22
2023-06-10T07:10:24.047Z,29.33
2023-06-10T07:12:51.931Z,29.41
2023-06-10T07:15:18.721Z,29.39
2023-06-10T07:17:45.807Z,29.37
2023-06-10T07:20:12.612Z,29.35
2023-06-10T07:22:39.756Z,29.30
2023-06-10T07:25:07.211Z,29.24
2023-06-10T07:27:34.563Z,29.21
2023-06-10T07:30:02.161Z,29.21
2023-06-10T07:32:30.383Z,29.24
2023-06-10T07:34:59.774Z,29.29
2023-06-10T07:37:26.909Z,29.36
2023-06-10T07:39:53.547Z,29.41
2023-06-10T07:42:20.173Z,29.43
2023-06-10T07:44:47.366Z,29.49
2023-06-10T07:47:13.940Z,29.61
2023-06-10T07:49:42.290Z,29.72
2023-06-10T07:52:09.348Z,29.80
2023-06-10T07:54:35.897Z,29.83
2023-06-10T07:57:02.874Z,29.82
2023-06-10T07:59:29.612Z,29.88
2023-06-10T08:01:56.351Z,30.04
2023-06-10T08:04:23.253Z,30.22
2023-06-10T08:06:50.155Z,30.41
2023-06-10T08:09:18.880Z,30.58
2023-06-10T08:11:47.635Z,30.72
2023-06-10T08:14:14.530Z,30.78
2023-06-10T08:16:43.469Z,30.85
2023-06-10T08:19:10.146Z,30.93
2023-06-10T08:21:40.844Z,31.00
2023-06-10T08:24:07.963Z,31.09
2023-06-10T08:26:34.567Z,31.25
2023-06-10T08:29:01.330Z,31.42
2023-06-10T08:31:28.046Z,31.48
2023-06-10T08:33:54.894Z,31.50
2023-06-10T08:36:21.651Z,31.46
2023-06-10T08:38:48.339Z,31.41
2023-06-10T08:41:15.245Z,31.42
2023-06-10T08:44:00.447Z,31.44
2023-06-10T08:46:29.988Z,31.41
2023-06-10T08:48:57.119Z,31.30
2023-06-10T08:51:25.314Z,31.18
2023-06-10T08:54:01.352Z,31.14
2023-06-10T08:56:28.875Z,31.13
2023-06-10T08:58:57.224Z,31.06
2023-06-10T09:01:25.352Z,31.01
2023-06-10T09:03:51.830Z,31.00
2023-06-10T09:06:18.686Z,31.03
2023-06-10T09:08:45.444Z,31.05
2023-06-10T09:11:12.104Z,31.11
2023-06-10T09:13:38.841Z,31.31
2023-06-10T09:16:06.354Z,31.58
2023-06-10T09:18:35.124Z,31.76
2023-06-10T09:21:01.609Z,31.86
2023-06-10T09:23:28.471Z,31.97
2023-06-10T09:26:00.675Z,32.15
2023-06-10T09:28:27.311Z,32.44
2023-06-10T09:31:04.796Z,32.70
2023-06-10T09:33:31.521Z,32.87
2023-06-10T09:36:01.725Z,32.98
2023-06-10T09:38:34.408Z,33.13
2023-06-10T09:41:04.108Z,33.31
2023-06-10T09:43:41.753Z,33.48
2023-06-10T09:46:18.125Z,33.53
2023-06-10T09:48:48.660Z,33.61
2023-06-10T09:51:17.534Z,33.73
2023-06-10T09:53:48.386Z,33.96
2023-06-10T09:56:15.090Z,34.19
2023-06-10T09:58:44.034Z,34.16
2023-06-10T10:01:12.083Z,34.00
2023-06-10T10:03:51.100Z,34.01
2023-06-10T10:06:19.646Z,34.11
2023-06-10T10:08:48.142Z,34.11
2023-06-10T10:11:19.250Z,34.15
2023-06-10T10:13:47.104Z,34.21
2023-06-10T10:16:36.614Z,34.13
2023-06-10T10:19:07.897Z,33.91
2023-06-10T10:21:37.851Z,33.62
2023-06-10T10:24:10.641Z,33.36
2023-06-10T10:26:38.033Z,33.19
2023-06-10T10:29:12.117Z,33.02
2023-06-10T10:31:38.861Z,32.91
2023-06-10T10:34:10.130Z,33.01
2023-06-10T10:36:37.604Z,33.21
2023-06-10T10:39:05.011Z,33.50
2023-06-10T10:41:32.166Z,33.81
2023-06-10T10:43:59.038Z,34.06
2023-06-10T10:46:26.570Z,34.25
2023-06-10T10:48:55.408Z,34.36
2023-06-10T10:51:24.171Z,34.42
2023-06-10T10:54:16.940Z,34.47
2023-06-10T10:57:12.593Z,34.61
2023-06-10T10:59:52.740Z,34.82
2023-06-10T11:02:20.529Z,34.96
2023-06-10T11:04:48.165Z,35.04
2023-06-10T11:07:20.713Z,35.10
2023-06-10T11:10:00.910Z,35.38
2023-06-10T11:12:54.173Z,35.80
2023-06-10T11:15:27.109Z,36.21
2023-06-10T11:18:12.257Z,36.40
2023-06-10T11:20:49.079Z,36.46
2023-06-10T11:23:26.462Z,36.66
2023-06-10T11:26:12.322Z,36.92
2023-06-10T11:28:39.925Z,37.02
2023-06-10T11:31:06.716Z,36.97
2023-06-10T11:33:34.080Z,36.73
2023-06-10T11:36:00.771Z,36.50
2023-06-10T11:38:27.583Z,36.36
2023-06-10T11:40:54.282Z,36.38
2023-06-10T11:43:21.161Z,36.55
2023-06-10T11:45:48.373Z,36.66
2023-06-10T11:48:15.300Z,36.72
2023-06-10T11:50:42.144Z,36.70
2023-06-10T11:53:09.067Z,36.68
2023-06-10T11:55:42.327Z,36.86
2023-06-10T11:58:18.960Z,37.03
2023-06-10T12:00:49.886Z,37.16
2023-06-10T12:03:17.080Z,37.14
2023-06-10T12:05:56.149Z,37.15
2023-06-10T12:08:23.195Z,37.16
2023-06-10T12:10:49.806Z,37.24
2023-06-10T12:13:18.240Z,37.39
2023-06-10T12:15:45.842Z,37.45
2023-06-10T12:18:19.430Z,37.41
2023-06-10T12:20:47.207Z,37.45
2023-06-10T12:23:14.912Z,37.52
2023-06-10T12:25:51.590Z,37.65
2023-06-10T12:28:26.739Z,37.78
2023-06-10T12:31:09.471Z,37.80
2023-06-10T12:33:36.309Z,37.64
2023-06-10T12:36:03.037Z,37.43
2023-06-10T12:38:30.888Z,37.44
2023-06-10T12:41:06.606Z,37.64
2023-06-10T12:43:33.813Z,37.90
2023-06-10T12:46:10.330Z,38.06
2023-06-10T12:48:36.878Z,38.24
2023-06-10T12:51:03.371Z,38.35
2023-06-10T12:53:30.131Z,38.35
2023-06-10T12:55:58.360Z,38.30
2023-06-10T12:58:25.385Z,38.25
2023-06-10T13:00:54.655Z,38.38
2023-06-10T13:03:22.167Z,38.54
2023-06-10T13:05:49.546Z,38.55
2023-06-10T13:08:16.653Z,38.46
2023-06-10T13:10:43.185Z,38.45
2023-06-10T13:13:10.249Z,38.56
2023-06-10T13:15:39.390Z,38.64
2023-06-10T13:18:09.333Z,38.64
2023-06-10T13:20:36.621Z,38.60
2023-06-10T13:23:03.614Z,38.59
2023-06-10T13:25:30.464Z,38.60
2023-06-10T13:27:57.951Z,38.65
2023-06-10T13:30:25.200Z,38.70
2023-06-10T13:32:52.724Z,38.89
2023-06-10T13:35:19.416Z,39.15
2023-06-10T13:37:46.426Z,39.26
2023-06-10T13:40:16.071Z,39.23
2023-06-10T13:42:42.747Z,39.02
2023-06-10T13:45:11.030Z,38.70
2023-06-10T13:47:38.510Z,38.33
2023-06-10T13:50:07.905Z,37.98
2023-06-10T13:52:35.038Z,37.81
2023-06-10T13:55:01.545Z,37.73
2023-06-10T13:57:28.621Z,37.70
2023-06-10T14:00:03.399Z,37.74
2023-06-10T14:02:32.050Z,37.83
2023-06-10T14:04:59.113Z,37.84
2023-06-10T14:07:26.951Z,37.93
2023-06-10T14:09:54.438Z,38.03
2023-06-10T14:12:22.809Z,38.07
2023-06-10T14:14:50.447Z,38.14
2023-06-10T14:17:17.238Z,38.15
2023-06-10T14:19:44.189Z,38.12
2023-06-10T14:22:10.871Z,38.04
2023-06-10T14:24:38.156Z,38.00
2023-06-10T14:27:05.243Z,38.11
2023-06-10T14:29:34.026Z,38.17
2023-06-10T14:32:00.923Z,38.20
2023-06-10T14:34:34.254Z,38.23
2023-06-10T14:37:01.335Z,38.31
2023-06-10T14:39:28.205Z,38.29
2023-06-10T14:41:54.831Z,38.29
2023-06-10T14:44:21.691Z,38.34
2023-06-10T14:46:49.164Z,38.39
2023-06-10T14:49:16.508Z,38.47
2023-06-10T14:51:43.537Z,38.49
2023-06-10T14:54:10.406Z,38.45
2023-06-10T14:56:37.871Z,38.37
2023-06-10T14:59:04.638Z,38.16
2023-06-10T15:01:31.567Z,37.85
2023-06-10T15:03:58.521Z,37.52
2023-06-10T15:06:25.835Z,37.24
2023-06-10T15:08:52.590Z,37.01
2023-06-10T15:11:19.434Z,36.82
2023-06-10T15:13:46.703Z,36.68
2023-06-10T15:16:15.657Z,36.59
2023-06-10T15:18:42.747Z,36.51
2023-06-10T15:21:10.199Z,36.39
2023-06-10T15:23:37.641Z,36.30
2023-06-10T15:26:05.146Z,36.22
2023-06-10T15:28:35.945Z,36.19
2023-06-10T15:31:03.631Z,36.20
2023-06-10T15:33:32.942Z,36.19
2023-06-10T15:36:00.256Z,36.12
2023-06-10T15:38:28.028Z,36.02
2023-06-10T15:40:56.386Z,35.93
2023-06-10T15:43:23.927Z,35.85
2023-06-10T15:45:51.857Z,35.79
2023-06-10T15:48:21.753Z,35.67
2023-06-10T15:50:49.322Z,35.45
2023-06-10T15:53:16.592Z,35.19
2023-06-10T15:55:43.368Z,34.95
2023-06-10T15:58:10.081Z,34.73
2023-06-10T16:00:36.650Z,34.51
2023-06-10T16:03:03.383Z,34.31
2023-06-10T16:05:30.440Z,34.12
2023-06-10T16:07:59.850Z,33.97
2023-06-10T16:10:29.568Z,33.83
2023-06-10T16:12:56.669Z,33.65
2023-06-10T16:15:23.271Z,33.42
2023-06-10T16:17:51.105Z,33.20
2023-06-10T16:20:17.689Z,32.98
2023-06-10T16:22:44.201Z,32.78
2023-06-10T16:25:11.028Z,32.56
2023-06-10T16:27:38.005Z,32.32
2023-06-10T16:30:05.587Z,32.10
2023-06-10T16:32:32.483Z,31.92
2023-06-10T16:34:59.064Z,31.78
2023-06-10T16:37:25.991Z,31.65
2023-06-10T16:39:52.995Z,31.53
2023-06-10T16:42:19.499Z,31.41
2023-06-10T16:44:46.136Z,31.28
2023-06-10T16:47:12.765Z,31.15
2023-06-10T16:49:39.401Z,31.05
2023-06-10T16:52:06.436Z,30.95
2023-06-10T16:54:33.148Z,30.84
2023-06-10T16:56:59.824Z,30.72
2023-06-10T16:59:26.460Z,30.62
2023-06-10T17:01:53.182Z,30.50
2023-06-10T17:04:19.897Z,30.41
2023-06-10T17:06:46.473Z,30.25
2023-06-10T17:09:13.012Z,30.07
2023-06-10T17:11:39.821Z,29.87
2023-06-10T17:14:06.634Z,29.69
2023-06-10T17:16:33.774Z,29.54
2023-06-10T17:19:00.396Z,29.42
2023-06-10T17:21:27.707Z,29.27
2023-06-10T17:23:55.759Z,29.15
2023-06-10T17:26:22.999Z,29.02
2023-06-10T17:28:49.614Z,28.88
2023-06-10T17:31:16.325Z,28.76
2023-06-10T17:33:43.144Z,28.67
2023-06-10T17:36:09.859Z,28.56
2023-06-10T17:38:37.278Z,28.45
2023-06-10T17:41:04.089Z,28.31
2023-06-10T17:43:30.756Z,28.17
2023-06-10T17:45:58.390Z,28.05
2023-06-10T17:48:25.165Z,27.96
2023-06-10T17:50:51.904Z,27.84
2023-06-10T17:53:19.253Z,27.72
2023-06-10T17:55:45.766Z,27.60
2023-06-10T17:58:13.929Z,27.50
2023-06-10T18:00:40.666Z,27.45
2023-06-10T18:03:07.342Z,27.37
2023-06-10T18:05:33.883Z,27.30
2023-06-10T18:08:01.041Z,27.24
2023-06-10T18:10:27.782Z,27.18
2023-06-10T18:12:54.630Z,27.11
2023-06-10T18:15:21.336Z,27.06
2023-06-10T18:17:48.142Z,27.03
2023-06-10T18:20:14.934Z,27.02
2023-06-10T18:22:41.719Z,26.98
2023-06-10T18:25:08.753Z,26.95
2023-06-10T18:27:36.359Z,26.91
2023-06-10T18:30:03.054Z,26.86
2023-06-10T18:32:31.174Z,26.83
2023-06-10T18:34:57.661Z,26.80
2023-06-10T18:37:24.277Z,26.77
2023-06-10T18:39:50.813Z,26.75
2023-06-10T18:42:17.402Z,26.72
2023-06-10T18:44:44.071Z,26.67
2023-06-10T18:47:11.095Z,26.63
2023-06-10T18:49:38.680Z,26.58
2023-06-10T18:52:06.465Z,26.53
2023-06-10T18:54:35.188Z,26.47
2023-06-10T18:57:02.360Z,26.43
2023-06-10T18:59:29.118Z,26.43
2023-06-10T19:01:55.897Z,26.41
2023-06-10T19:04:22.453Z,26.37
2023-06-10T19:06:50.197Z,26.35
2023-06-10T19:09:16.989Z,26.31
2023-06-10T19:11:45.178Z,26.29
2023-06-10T19:14:12.320Z,26.26
2023-06-10T19:16:39.373Z,26.24
2023-06-10T19:19:06.407Z,26.21
2023-06-10T19:21:32.929Z,26.18
2023-06-10T19:24:00.478Z,26.16
2023-06-10T19:26:27.853Z,26.15
2023-06-10T19:28:55.361Z,26.12
2023-06-10T19:31:22.091Z,26.10
2023-06-10T19:33:48.906Z,26.08
2023-06-10T19:36:16.951Z,26.07
2023-06-10T19:38:43.442Z,26.05
2023-06-10T19:41:10.220Z,26.02
2023-06-10T19:43:37.502Z,25.97
2023-06-10T19:46:04.091Z,25.96
2023-06-10T19:48:31.935Z,25.90
2023-06-10T19:50:58.635Z,25.89
2023-06-10T19:53:25.583Z,25.87
2023-06-10T19:55:52.270Z,25.84
2023-06-10T19:58:18.760Z,25.80
2023-06-10T20:00:45.350Z,25.77
2023-06-10T20:03:11.999Z,25.73
2023-06-10T20:05:38.704Z,25.68
2023-06-10T20:08:05.398Z,25.65
2023-06-10T20:10:32.221Z,25.62
2023-06-10T20:12:58.821Z,25.58
2023-06-10T20:15:25.350Z,25.51
2023-06-10T20:17:53.196Z,25.43
2023-06-10T20:20:19.950Z,25.34
2023-06-10T20:22:47.065Z,25.25
2023-06-10T20:25:14.083Z,25.14
2023-06-10T20:27:41.046Z,25.03
2023-06-10T20:30:08.552Z,24.93
2023-06-10T20:32:36.089Z,24.80
2023-06-10T20:35:02.998Z,24.69
2023-06-10T20:37:29.776Z,24.61
2023-06-10T20:39:56.369Z,24.53
2023-06-10T20:42:23.891Z,24.41
2023-06-10T20:44:51.925Z,24.32
2023-06-10T20:47:19.157Z,24.29
2023-06-10T20:49:46.087Z,24.28
2023-06-10T20:52:12.724Z,24.25
2023-06-10T20:54:39.211Z,24.22
2023-06-10T20:57:06.276Z,24.18
2023-06-10T20:59:33.071Z,24.15
2023-06-10T21:01:59.884Z,24.13
2023-06-10T21:04:26.499Z,24.11
2023-06-10T21:06:53.204Z,24.09
2023-06-10T21:09:19.857Z,24.06
2023-06-10T21:11:46.539Z,24.03
2023-06-10T21:14:13.277Z,23.98
2023-06-10T21:16:59.665Z,23.94
2023-06-10T21:19:26.231Z,23.92
2023-06-10T21:21:53.208Z,23.89
2023-06-10T21:24:19.874Z,23.87
2023-06-10T21:26:46.564Z,23.85
2023-06-10T21:29:14.050Z,23.81
2023-06-10T21:31:40.693Z,23.77
2023-06-10T21:34:10.029Z,23.73
2023-06-10T21:36:37.301Z,23.71
2023-06-10T21:39:04.426Z,23.67
2023-06-10T21:41:31.616Z,23.65
2023-06-10T21:43:58.833Z,23.61
2023-06-10T21:46:26.656Z,23.58
2023-06-10T21:48:53.393Z,23.57
2023-06-10T21:51:19.996Z,23.54
2023-06-10T21:53:46.564Z,23.53
2023-06-10T21:56:13.220Z,23.52
2023-06-10T21:58:39.995Z,23.51
2023-06-10T22:01:07.033Z,23.49
2023-06-10T22:03:33.514Z,23.46
2023-06-10T22:06:02.368Z,23.44
2023-06-10T22:08:29.216Z,23.43
2023-06-10T22:10:55.921Z,23.42
2023-06-10T22:13:22.919Z,23.40
2023-06-10T22:15:50.109Z,23.38
2023-06-10T22:18:17.217Z,23.35
2023-06-10T22:20:43.889Z,23.33
2023-06-10T22:23:11.302Z,23.31
2023-06-10T22:25:38.279Z,23.27
2023-06-10T22:28:04.940Z,23.22
2023-06-10T22:30:31.914Z,23.18
2023-06-10T22:32:58.832Z,23.14
2023-06-10T22:35:25.596Z,23.10
2023-06-10T22:37:52.267Z,23.06
2023-06-10T22:40:18.821Z,23.01
2023-06-10T22:42:45.323Z,22.95
2023-06-10T22:45:12.437Z,22.90
2023-06-10T22:47:39.560Z,22.85
2023-06-10T22:50:07.015Z,22.81
2023-06-10T22:52:33.955Z,22.79
2023-06-10T22:55:00.517Z,22.75
2023-06-10T22:57:27.023Z,22.72
2023-06-10T22:59:53.697Z,22.70
2023-06-10T23:02:20.682Z,22.69
2023-06-10T23:04:47.213Z,22.65
2023-06-10T23:07:15.570Z,22.62
2023-06-10T23:09:42.412Z,22.57
2023-06-10T23:12:10.378Z,22.53
2023-06-10T23:14:36.826Z,22.50
2023-06-10T23:17:04.163Z,22.48
2023-06-10T23:19:30.740Z,22.45
2023-06-10T23:21:59.155Z,22.42
2023-06-10T23:24:29.253Z,22.39
2023-06-10T23:26:56.902Z,22.36
2023-06-10T23:29:24.046Z,22.32
2023-06-10T23:31:50.903Z,22.27
2023-06-10T23:34:17.389Z,22.24
2023-06-10T23:36:47.225Z,22.22
2023-06-10T23:39:14.865Z,22.21
2023-06-10T23:41:41.885Z,22.18
2023-06-10T23:44:08.482Z,22.15
2023-06-10T23:46:35.392Z,22.12
2023-06-10T23:49:03.990Z,22.06
2023-06-10T23:51:31.658Z,22.01
2023-06-10T23:53:58.164Z,22.00
2023-06-10T23:56:25.438Z,21.97
2023-06-10T23:58:51.924Z,21.93
